sensor_id;sensor_type;location;lat;lon;timestamp;P1;durP1;ratioP1;P2;durP2;ratioP2
60336;SDS011;46978;50.288;28.624;2023-01-30T00:00:39;13.06;;;8.39;;
60336;SDS011;46978;50.288;28.624;2023-01-30T00:01:41;16.10;;;9.36;;
60336;SDS011;46978;50.288;28.624;2023-01-30T00:02:43;13.91;;;9.04;;
60336;SDS011;46978;50.288;28.624;2023-01-30T00:03:45;14.04;;;8.73;;
60336;SDS011;46978;50.288;28.624;2023-01-30T00:04:47;13.75;;;8.79;;
60336;SDS011;46978;50.288;28.624;2023-01-30T00:05:49;12.36;;;8.19;;
60336;SDS011;46978;50.288;28.624;2023-01-30T00:06:51;14.60;;;8.91;;
60336;SDS011;46978;50.288;28.624;2023-01-30T00:07:53;14.04;;;9.46;;
60336;SDS011;46978;50.288;28.624;2023-01-30T00:08:55;15.63;;;9.05;;
60336;SDS011;46978;50.288;28.624;2023-01-30T00:09:56;14.49;;;8.85;;
60336;SDS011;46978;50.288;28.624;2023-01-30T00:11:02;13.97;;;9.07;;
60336;SDS011;46978;50.288;28.624;2023-01-30T00:12:09;13.71;;;8.33;;
60336;SDS011;46978;50.288;28.624;2023-01-30T00:13:10;13.49;;;9.20;;
60336;SDS011;46978;50.288;28.624;2023-01-30T00:14:13;16.05;;;9.63;;
60336;SDS011;46978;50.288;28.624;2023-01-30T00:15:15;14.95;;;9.35;;
60336;SDS011;46978;50.288;28.624;2023-01-30T00:16:17;13.56;;;9.07;;
60336;SDS011;46978;50.288;28.624;2023-01-30T00:17:19;15.79;;;9.54;;
60336;SDS011;46978;50.288;28.624;2023-01-30T00:18:20;13.88;;;8.79;;
60336;SDS011;46978;50.288;28.624;2023-01-30T00:20:44;14.31;;;9.02;;
60336;SDS011;46978;50.288;28.624;2023-01-30T00:21:45;15.89;;;10.00;;
60336;SDS011;46978;50.288;28.624;2023-01-30T00:22:47;16.29;;;10.19;;
60336;SDS011;46978;50.288;28.624;2023-01-30T00:23:48;15.60;;;9.71;;
60336;SDS011;46978;50.288;28.624;2023-01-30T00:24:50;15.91;;;9.11;;
60336;SDS011;46978;50.288;28.624;2023-01-30T00:25:52;15.26;;;9.27;;
60336;SDS011;46978;50.288;28.624;2023-01-30T00:26:54;15.88;;;9.35;;
60336;SDS011;46978;50.288;28.624;2023-01-30T00:27:57;14.82;;;8.96;;
60336;SDS011;46978;50.288;28.624;2023-01-30T00:29:00;13.58;;;8.85;;
60336;SDS011;46978;50.288;28.624;2023-01-30T00:30:02;14.16;;;9.81;;
60336;SDS011;46978;50.288;28.624;2023-01-30T00:31:04;15.73;;;9.37;;
60336;SDS011;46978;50.288;28.624;2023-01-30T00:32:06;13.63;;;9.01;;
60336;SDS011;46978;50.288;28.624;2023-01-30T00:33:08;17.27;;;9.89;;
60336;SDS011;46978;50.288;28.624;2023-01-30T00:34:10;14.83;;;9.03;;
60336;SDS011;46978;50.288;28.624;2023-01-30T00:35:12;16.04;;;9.84;;
60336;SDS011;46978;50.288;28.624;2023-01-30T00:36:13;13.88;;;9.47;;
60336;SDS011;46978;50.288;28.624;2023-01-30T00:37:15;14.99;;;9.68;;
60336;SDS011;46978;50.288;28.624;2023-01-30T00:38:17;15.47;;;9.73;;
60336;SDS011;46978;50.288;28.624;2023-01-30T00:39:19;14.42;;;8.94;;
60336;SDS011;46978;50.288;28.624;2023-01-30T00:40:21;15.91;;;9.55;;
60336;SDS011;46978;50.288;28.624;2023-01-30T00:41:22;16.06;;;9.66;;
60336;SDS011;46978;50.288;28.624;2023-01-30T00:42:24;15.39;;;10.03;;
60336;SDS011;46978;50.288;28.624;2023-01-30T00:43:26;17.02;;;10.24;;
60336;SDS011;46978;50.288;28.624;2023-01-30T00:44:27;16.44;;;9.42;;
60336;SDS011;46978;50.288;28.624;2023-01-30T00:45:29;16.75;;;10.24;;
60336;SDS011;46978;50.288;28.624;2023-01-30T00:46:31;14.77;;;9.27;;
60336;SDS011;46978;50.288;28.624;2023-01-30T00:47:34;14.94;;;9.26;;
60336;SDS011;46978;50.288;28.624;2023-01-30T00:48:36;15.69;;;9.58;;
60336;SDS011;46978;50.288;28.624;2023-01-30T00:49:38;14.54;;;9.79;;
60336;SDS011;46978;50.288;28.624;2023-01-30T00:50:39;16.36;;;10.01;;
60336;SDS011;46978;50.288;28.624;2023-01-30T00:51:41;15.43;;;9.37;;
60336;SDS011;46978;50.288;28.624;2023-01-30T00:52:43;15.95;;;9.68;;
60336;SDS011;46978;50.288;28.624;2023-01-30T00:53:44;14.87;;;9.46;;
60336;SDS011;46978;50.288;28.624;2023-01-30T00:54:46;15.55;;;10.11;;
60336;SDS011;46978;50.288;28.624;2023-01-30T00:55:49;16.14;;;9.92;;
60336;SDS011;46978;50.288;28.624;2023-01-30T00:56:52;17.01;;;9.99;;
60336;SDS011;46978;50.288;28.624;2023-01-30T00:57:53;16.22;;;9.90;;
60336;SDS011;46978;50.288;28.624;2023-01-30T00:58:55;15.54;;;9.79;;
60336;SDS011;46978;50.288;28.624;2023-01-30T00:59:57;15.98;;;9.85;;
60336;SDS011;46978;50.288;28.624;2023-01-30T01:00:59;17.15;;;10.20;;
60336;SDS011;46978;50.288;28.624;2023-01-30T01:02:01;16.23;;;9.99;;
60336;SDS011;46978;50.288;28.624;2023-01-30T01:03:03;15.57;;;8.78;;
60336;SDS011;46978;50.288;28.624;2023-01-30T01:04:05;15.77;;;9.49;;
60336;SDS011;46978;50.288;28.624;2023-01-30T01:05:08;16.52;;;9.90;;
60336;SDS011;46978;50.288;28.624;2023-01-30T01:06:10;15.17;;;9.69;;
60336;SDS011;46978;50.288;28.624;2023-01-30T01:07:12;15.34;;;9.74;;
60336;SDS011;46978;50.288;28.624;2023-01-30T01:08:15;16.99;;;9.83;;
60336;SDS011;46978;50.288;28.624;2023-01-30T01:09:17;15.74;;;9.87;;
60336;SDS011;46978;50.288;28.624;2023-01-30T01:10:19;14.35;;;8.55;;
60336;SDS011;46978;50.288;28.624;2023-01-30T01:11:22;18.22;;;9.21;;
60336;SDS011;46978;50.288;28.624;2023-01-30T01:12:23;14.99;;;9.32;;
60336;SDS011;46978;50.288;28.624;2023-01-30T01:13:25;13.29;;;9.01;;
60336;SDS011;46978;50.288;28.624;2023-01-30T01:14:27;14.15;;;9.09;;
60336;SDS011;46978;50.288;28.624;2023-01-30T01:15:29;14.16;;;9.14;;
60336;SDS011;46978;50.288;28.624;2023-01-30T01:16:31;16.57;;;9.49;;
60336;SDS011;46978;50.288;28.624;2023-01-30T01:17:33;15.43;;;9.45;;
60336;SDS011;46978;50.288;28.624;2023-01-30T01:18:35;18.26;;;9.99;;
60336;SDS011;46978;50.288;28.624;2023-01-30T01:19:37;16.74;;;9.49;;
60336;SDS011;46978;50.288;28.624;2023-01-30T01:20:38;16.57;;;9.99;;
60336;SDS011;46978;50.288;28.624;2023-01-30T01:21:40;16.44;;;9.52;;
60336;SDS011;46978;50.288;28.624;2023-01-30T01:22:42;16.49;;;9.13;;
60336;SDS011;46978;50.288;28.624;2023-01-30T01:23:48;15.41;;;9.53;;
60336;SDS011;46978;50.288;28.624;2023-01-30T01:24:51;14.16;;;9.24;;
60336;SDS011;46978;50.288;28.624;2023-01-30T01:25:53;15.14;;;8.75;;
60336;SDS011;46978;50.288;28.624;2023-01-30T01:26:54;13.53;;;9.16;;
60336;SDS011;46978;50.288;28.624;2023-01-30T01:27:56;15.68;;;9.74;;
60336;SDS011;46978;50.288;28.624;2023-01-30T01:28:57;13.90;;;9.04;;
60336;SDS011;46978;50.288;28.624;2023-01-30T01:29:59;15.21;;;8.73;;
60336;SDS011;46978;50.288;28.624;2023-01-30T01:31:06;18.05;;;9.74;;
60336;SDS011;46978;50.288;28.624;2023-01-30T01:32:08;15.78;;;10.08;;
60336;SDS011;46978;50.288;28.624;2023-01-30T01:33:10;15.11;;;9.84;;
60336;SDS011;46978;50.288;28.624;2023-01-30T01:34:12;13.10;;;8.91;;
60336;SDS011;46978;50.288;28.624;2023-01-30T01:35:13;14.92;;;9.80;;
60336;SDS011;46978;50.288;28.624;2023-01-30T01:36:15;15.65;;;9.48;;
60336;SDS011;46978;50.288;28.624;2023-01-30T01:37:17;13.75;;;8.60;;
60336;SDS011;46978;50.288;28.624;2023-01-30T01:38:19;13.47;;;8.77;;
60336;SDS011;46978;50.288;28.624;2023-01-30T01:39:20;11.01;;;8.13;;
60336;SDS011;46978;50.288;28.624;2023-01-30T01:40:22;14.99;;;9.05;;
60336;SDS011;46978;50.288;28.624;2023-01-30T01:41:24;15.69;;;8.55;;
60336;SDS011;46978;50.288;28.624;2023-01-30T01:42:28;13.28;;;8.36;;
60336;SDS011;46978;50.288;28.624;2023-01-30T01:43:35;13.68;;;8.69;;
60336;SDS011;46978;50.288;28.624;2023-01-30T01:46:14;21.68;;;12.06;;
60336;SDS011;46978;50.288;28.624;2023-01-30T01:47:08;25.63;;;14.76;;
60336;SDS011;46978;50.288;28.624;2023-01-30T01:48:11;24.01;;;14.09;;
60336;SDS011;46978;50.288;28.624;2023-01-30T01:50:29;16.04;;;9.73;;
60336;SDS011;46978;50.288;28.624;2023-01-30T01:51:46;15.00;;;9.01;;
60336;SDS011;46978;50.288;28.624;2023-01-30T01:54:05;12.56;;;8.04;;
60336;SDS011;46978;50.288;28.624;2023-01-30T01:55:11;13.42;;;8.02;;
60336;SDS011;46978;50.288;28.624;2023-01-30T01:56:14;12.51;;;8.70;;
60336;SDS011;46978;50.288;28.624;2023-01-30T01:57:53;13.52;;;9.05;;
60336;SDS011;46978;50.288;28.624;2023-01-30T01:58:37;14.39;;;8.32;;
60336;SDS011;46978;50.288;28.624;2023-01-30T01:59:43;14.44;;;8.67;;
60336;SDS011;46978;50.288;28.624;2023-01-30T02:00:46;12.52;;;8.54;;
60336;SDS011;46978;50.288;28.624;2023-01-30T02:01:49;14.59;;;8.30;;
60336;SDS011;46978;50.288;28.624;2023-01-30T02:02:55;12.45;;;8.41;;
60336;SDS011;46978;50.288;28.624;2023-01-30T02:03:59;14.37;;;8.19;;
60336;SDS011;46978;50.288;28.624;2023-01-30T02:05:04;12.33;;;8.56;;
60336;SDS011;46978;50.288;28.624;2023-01-30T02:06:06;13.05;;;8.67;;
60336;SDS011;46978;50.288;28.624;2023-01-30T02:07:10;14.06;;;8.61;;
60336;SDS011;46978;50.288;28.624;2023-01-30T02:09:17;15.36;;;8.63;;
60336;SDS011;46978;50.288;28.624;2023-01-30T02:10:20;13.34;;;7.99;;
60336;SDS011;46978;50.288;28.624;2023-01-30T02:11:27;15.45;;;8.41;;
60336;SDS011;46978;50.288;28.624;2023-01-30T02:12:28;15.30;;;8.60;;
60336;SDS011;46978;50.288;28.624;2023-01-30T02:13:30;13.59;;;8.18;;
60336;SDS011;46978;50.288;28.624;2023-01-30T02:14:32;15.59;;;8.53;;
60336;SDS011;46978;50.288;28.624;2023-01-30T02:15:36;14.54;;;8.23;;
60336;SDS011;46978;50.288;28.624;2023-01-30T02:16:38;13.48;;;8.65;;
60336;SDS011;46978;50.288;28.624;2023-01-30T02:17:40;14.38;;;8.64;;
60336;SDS011;46978;50.288;28.624;2023-01-30T02:18:42;14.25;;;8.74;;
60336;SDS011;46978;50.288;28.624;2023-01-30T02:19:47;12.06;;;8.29;;
60336;SDS011;46978;50.288;28.624;2023-01-30T02:25:34;13.05;;;8.54;;
60336;SDS011;46978;50.288;28.624;2023-01-30T02:31:14;14.73;;;8.75;;
60336;SDS011;46978;50.288;28.624;2023-01-30T02:32:25;15.54;;;8.89;;
60336;SDS011;46978;50.288;28.624;2023-01-30T02:36:12;11.59;;;8.23;;
60336;SDS011;46978;50.288;28.624;2023-01-30T02:38:48;14.32;;;8.43;;
60336;SDS011;46978;50.288;28.624;2023-01-30T02:40:17;13.29;;;8.41;;
60336;SDS011;46978;50.288;28.624;2023-01-30T02:41:35;14.38;;;8.89;;
60336;SDS011;46978;50.288;28.624;2023-01-30T02:42:51;14.49;;;8.87;;
60336;SDS011;46978;50.288;28.624;2023-01-30T02:45:55;15.29;;;8.30;;
60336;SDS011;46978;50.288;28.624;2023-01-30T02:48:16;13.37;;;8.63;;
60336;SDS011;46978;50.288;28.624;2023-01-30T02:50:44;15.76;;;9.09;;
60336;SDS011;46978;50.288;28.624;2023-01-30T02:51:48;14.79;;;8.89;;
60336;SDS011;46978;50.288;28.624;2023-01-30T02:52:51;13.67;;;8.59;;
60336;SDS011;46978;50.288;28.624;2023-01-30T02:53:53;15.44;;;9.29;;
60336;SDS011;46978;50.288;28.624;2023-01-30T02:54:55;14.63;;;9.23;;
60336;SDS011;46978;50.288;28.624;2023-01-30T02:55:57;15.32;;;9.47;;
60336;SDS011;46978;50.288;28.624;2023-01-30T02:56:59;13.88;;;9.15;;
60336;SDS011;46978;50.288;28.624;2023-01-30T02:58:04;14.65;;;9.41;;
60336;SDS011;46978;50.288;28.624;2023-01-30T02:59:05;15.78;;;8.94;;
60336;SDS011;46978;50.288;28.624;2023-01-30T03:00:09;17.34;;;9.25;;
60336;SDS011;46978;50.288;28.624;2023-01-30T03:03:07;15.12;;;9.13;;
60336;SDS011;46978;50.288;28.624;2023-01-30T03:08:19;19.29;;;10.55;;
60336;SDS011;46978;50.288;28.624;2023-01-30T03:09:35;15.61;;;9.61;;
60336;SDS011;46978;50.288;28.624;2023-01-30T03:12:17;17.39;;;9.58;;
60336;SDS011;46978;50.288;28.624;2023-01-30T03:14:47;15.27;;;9.64;;
60336;SDS011;46978;50.288;28.624;2023-01-30T03:16:11;16.51;;;10.03;;
60336;SDS011;46978;50.288;28.624;2023-01-30T03:17:15;16.09;;;10.36;;
60336;SDS011;46978;50.288;28.624;2023-01-30T03:18:20;16.34;;;9.96;;
60336;SDS011;46978;50.288;28.624;2023-01-30T03:19:22;16.64;;;10.30;;
60336;SDS011;46978;50.288;28.624;2023-01-30T03:20:24;17.03;;;9.81;;
60336;SDS011;46978;50.288;28.624;2023-01-30T03:21:26;15.67;;;10.45;;
60336;SDS011;46978;50.288;28.624;2023-01-30T03:22:28;17.51;;;9.83;;
60336;SDS011;46978;50.288;28.624;2023-01-30T03:23:29;16.59;;;10.09;;
60336;SDS011;46978;50.288;28.624;2023-01-30T03:24:31;17.01;;;10.04;;
60336;SDS011;46978;50.288;28.624;2023-01-30T03:25:34;17.18;;;10.54;;
60336;SDS011;46978;50.288;28.624;2023-01-30T03:26:50;17.61;;;10.19;;
60336;SDS011;46978;50.288;28.624;2023-01-30T03:27:53;18.02;;;10.54;;
60336;SDS011;46978;50.288;28.624;2023-01-30T03:28:56;16.62;;;10.04;;
60336;SDS011;46978;50.288;28.624;2023-01-30T03:29:58;18.07;;;10.33;;
60336;SDS011;46978;50.288;28.624;2023-01-30T03:31:00;17.57;;;10.07;;
60336;SDS011;46978;50.288;28.624;2023-01-30T03:32:02;19.10;;;10.81;;
60336;SDS011;46978;50.288;28.624;2023-01-30T03:33:04;16.40;;;10.13;;
60336;SDS011;46978;50.288;28.624;2023-01-30T03:34:05;18.83;;;10.78;;
60336;SDS011;46978;50.288;28.624;2023-01-30T03:35:07;15.16;;;9.80;;
60336;SDS011;46978;50.288;28.624;2023-01-30T03:36:10;20.31;;;11.12;;
60336;SDS011;46978;50.288;28.624;2023-01-30T03:37:12;17.83;;;10.49;;
60336;SDS011;46978;50.288;28.624;2023-01-30T03:38:13;18.14;;;10.61;;
60336;SDS011;46978;50.288;28.624;2023-01-30T03:39:16;18.23;;;10.85;;
60336;SDS011;46978;50.288;28.624;2023-01-30T03:40:18;19.67;;;11.15;;
60336;SDS011;46978;50.288;28.624;2023-01-30T03:41:20;20.17;;;11.16;;
60336;SDS011;46978;50.288;28.624;2023-01-30T03:42:22;18.74;;;11.37;;
60336;SDS011;46978;50.288;28.624;2023-01-30T03:43:24;19.39;;;10.87;;
60336;SDS011;46978;50.288;28.624;2023-01-30T03:44:25;19.09;;;11.98;;
60336;SDS011;46978;50.288;28.624;2023-01-30T03:45:27;19.08;;;11.29;;
60336;SDS011;46978;50.288;28.624;2023-01-30T03:46:29;16.45;;;10.57;;
60336;SDS011;46978;50.288;28.624;2023-01-30T03:47:30;20.61;;;10.51;;
60336;SDS011;46978;50.288;28.624;2023-01-30T03:48:32;16.39;;;10.31;;
60336;SDS011;46978;50.288;28.624;2023-01-30T03:49:34;17.70;;;10.81;;
60336;SDS011;46978;50.288;28.624;2023-01-30T03:50:36;17.86;;;10.55;;
60336;SDS011;46978;50.288;28.624;2023-01-30T03:51:37;18.50;;;10.25;;
60336;SDS011;46978;50.288;28.624;2023-01-30T03:52:39;18.16;;;11.11;;
60336;SDS011;46978;50.288;28.624;2023-01-30T03:53:41;19.68;;;10.54;;
60336;SDS011;46978;50.288;28.624;2023-01-30T03:54:42;18.05;;;10.79;;
60336;SDS011;46978;50.288;28.624;2023-01-30T03:55:44;18.31;;;10.27;;
60336;SDS011;46978;50.288;28.624;2023-01-30T03:56:46;16.86;;;9.81;;
60336;SDS011;46978;50.288;28.624;2023-01-30T03:57:47;18.11;;;10.74;;
60336;SDS011;46978;50.288;28.624;2023-01-30T03:58:49;19.11;;;10.28;;
60336;SDS011;46978;50.288;28.624;2023-01-30T03:59:51;17.66;;;10.70;;
60336;SDS011;46978;50.288;28.624;2023-01-30T04:00:54;19.53;;;10.87;;
60336;SDS011;46978;50.288;28.624;2023-01-30T04:01:56;17.77;;;10.66;;
60336;SDS011;46978;50.288;28.624;2023-01-30T04:02:58;19.24;;;10.59;;
60336;SDS011;46978;50.288;28.624;2023-01-30T04:03:59;16.82;;;10.21;;
60336;SDS011;46978;50.288;28.624;2023-01-30T04:05:01;19.51;;;10.11;;
60336;SDS011;46978;50.288;28.624;2023-01-30T04:06:03;21.32;;;10.99;;
60336;SDS011;46978;50.288;28.624;2023-01-30T04:07:05;18.46;;;10.35;;
60336;SDS011;46978;50.288;28.624;2023-01-30T04:08:06;19.12;;;10.44;;
60336;SDS011;46978;50.288;28.624;2023-01-30T04:09:08;17.89;;;10.56;;
60336;SDS011;46978;50.288;28.624;2023-01-30T04:10:10;19.91;;;10.99;;
60336;SDS011;46978;50.288;28.624;2023-01-30T04:11:12;17.99;;;11.29;;
60336;SDS011;46978;50.288;28.624;2023-01-30T04:12:13;17.26;;;10.86;;
60336;SDS011;46978;50.288;28.624;2023-01-30T04:13:15;18.86;;;10.76;;
60336;SDS011;46978;50.288;28.624;2023-01-30T04:14:17;16.71;;;10.21;;
60336;SDS011;46978;50.288;28.624;2023-01-30T04:15:18;21.67;;;12.49;;
60336;SDS011;46978;50.288;28.624;2023-01-30T04:16:22;20.26;;;10.83;;
60336;SDS011;46978;50.288;28.624;2023-01-30T04:17:25;19.33;;;10.79;;
60336;SDS011;46978;50.288;28.624;2023-01-30T04:18:27;20.19;;;11.58;;
60336;SDS011;46978;50.288;28.624;2023-01-30T04:19:29;20.02;;;11.26;;
60336;SDS011;46978;50.288;28.624;2023-01-30T04:20:32;19.81;;;10.61;;
60336;SDS011;46978;50.288;28.624;2023-01-30T04:21:34;17.54;;;9.51;;
60336;SDS011;46978;50.288;28.624;2023-01-30T04:22:36;17.67;;;10.30;;
60336;SDS011;46978;50.288;28.624;2023-01-30T04:23:37;16.59;;;10.35;;
60336;SDS011;46978;50.288;28.624;2023-01-30T04:24:40;20.01;;;11.27;;
60336;SDS011;46978;50.288;28.624;2023-01-30T04:25:44;20.81;;;13.56;;
60336;SDS011;46978;50.288;28.624;2023-01-30T04:26:46;18.90;;;11.26;;
60336;SDS011;46978;50.288;28.624;2023-01-30T04:27:48;15.81;;;9.74;;
60336;SDS011;46978;50.288;28.624;2023-01-30T04:28:50;18.46;;;10.56;;
60336;SDS011;46978;50.288;28.624;2023-01-30T04:29:52;34.69;;;23.57;;
60336;SDS011;46978;50.288;28.624;2023-01-30T04:30:54;20.22;;;12.36;;
60336;SDS011;46978;50.288;28.624;2023-01-30T04:31:56;19.36;;;10.70;;
60336;SDS011;46978;50.288;28.624;2023-01-30T04:32:57;19.26;;;11.36;;
60336;SDS011;46978;50.288;28.624;2023-01-30T04:33:59;20.21;;;11.76;;
60336;SDS011;46978;50.288;28.624;2023-01-30T04:35:01;18.30;;;12.07;;
60336;SDS011;46978;50.288;28.624;2023-01-30T04:36:03;19.99;;;10.51;;
60336;SDS011;46978;50.288;28.624;2023-01-30T04:37:06;16.81;;;10.73;;
60336;SDS011;46978;50.288;28.624;2023-01-30T04:38:08;18.13;;;11.04;;
60336;SDS011;46978;50.288;28.624;2023-01-30T04:39:09;17.13;;;10.52;;
60336;SDS011;46978;50.288;28.624;2023-01-30T04:40:12;19.73;;;11.15;;
60336;SDS011;46978;50.288;28.624;2023-01-30T04:41:13;19.33;;;11.48;;
60336;SDS011;46978;50.288;28.624;2023-01-30T04:42:15;23.83;;;14.28;;
60336;SDS011;46978;50.288;28.624;2023-01-30T04:43:17;23.79;;;14.19;;
60336;SDS011;46978;50.288;28.624;2023-01-30T04:44:20;19.85;;;11.08;;
60336;SDS011;46978;50.288;28.624;2023-01-30T04:45:21;25.16;;;13.70;;
60336;SDS011;46978;50.288;28.624;2023-01-30T04:46:23;18.78;;;10.75;;
60336;SDS011;46978;50.288;28.624;2023-01-30T04:47:25;19.00;;;10.44;;
60336;SDS011;46978;50.288;28.624;2023-01-30T04:48:27;16.81;;;9.97;;
60336;SDS011;46978;50.288;28.624;2023-01-30T04:49:29;17.53;;;10.67;;
60336;SDS011;46978;50.288;28.624;2023-01-30T04:50:30;17.65;;;10.85;;
60336;SDS011;46978;50.288;28.624;2023-01-30T04:51:32;18.11;;;10.25;;
60336;SDS011;46978;50.288;28.624;2023-01-30T04:52:34;16.67;;;10.04;;
60336;SDS011;46978;50.288;28.624;2023-01-30T04:53:35;17.33;;;10.91;;
60336;SDS011;46978;50.288;28.624;2023-01-30T04:55:58;20.68;;;11.08;;
60336;SDS011;46978;50.288;28.624;2023-01-30T04:57:00;20.75;;;10.98;;
60336;SDS011;46978;50.288;28.624;2023-01-30T04:58:02;18.96;;;10.82;;
60336;SDS011;46978;50.288;28.624;2023-01-30T04:59:04;18.99;;;10.92;;
60336;SDS011;46978;50.288;28.624;2023-01-30T05:00:06;17.75;;;10.56;;
60336;SDS011;46978;50.288;28.624;2023-01-30T05:01:18;19.16;;;10.74;;
60336;SDS011;46978;50.288;28.624;2023-01-30T05:02:25;19.19;;;11.34;;
60336;SDS011;46978;50.288;28.624;2023-01-30T05:03:27;18.81;;;10.67;;
60336;SDS011;46978;50.288;28.624;2023-01-30T05:04:29;19.76;;;11.45;;
60336;SDS011;46978;50.288;28.624;2023-01-30T05:05:30;19.41;;;11.34;;
60336;SDS011;46978;50.288;28.624;2023-01-30T05:06:33;20.44;;;11.36;;
60336;SDS011;46978;50.288;28.624;2023-01-30T05:07:35;19.05;;;11.07;;
60336;SDS011;46978;50.288;28.624;2023-01-30T05:08:37;19.06;;;10.55;;
60336;SDS011;46978;50.288;28.624;2023-01-30T05:09:38;17.56;;;10.27;;
60336;SDS011;46978;50.288;28.624;2023-01-30T05:10:40;20.83;;;11.36;;
60336;SDS011;46978;50.288;28.624;2023-01-30T05:11:42;18.53;;;10.75;;
60336;SDS011;46978;50.288;28.624;2023-01-30T05:12:44;19.65;;;13.35;;
60336;SDS011;46978;50.288;28.624;2023-01-30T05:13:46;22.55;;;11.91;;
60336;SDS011;46978;50.288;28.624;2023-01-30T05:14:48;18.88;;;10.62;;
60336;SDS011;46978;50.288;28.624;2023-01-30T05:15:49;17.76;;;10.55;;
60336;SDS011;46978;50.288;28.624;2023-01-30T05:16:51;22.53;;;13.59;;
60336;SDS011;46978;50.288;28.624;2023-01-30T05:17:53;20.24;;;12.72;;
60336;SDS011;46978;50.288;28.624;2023-01-30T05:18:55;17.78;;;10.49;;
60336;SDS011;46978;50.288;28.624;2023-01-30T05:19:56;15.24;;;9.36;;
60336;SDS011;46978;50.288;28.624;2023-01-30T05:21:10;15.66;;;10.17;;
60336;SDS011;46978;50.288;28.624;2023-01-30T05:22:13;18.05;;;10.29;;
60336;SDS011;46978;50.288;28.624;2023-01-30T05:23:14;16.97;;;10.26;;
60336;SDS011;46978;50.288;28.624;2023-01-30T05:24:16;18.65;;;10.28;;
60336;SDS011;46978;50.288;28.624;2023-01-30T05:25:17;16.18;;;9.71;;
60336;SDS011;46978;50.288;28.624;2023-01-30T05:26:19;18.81;;;10.19;;
60336;SDS011;46978;50.288;28.624;2023-01-30T05:27:21;19.09;;;10.08;;
60336;SDS011;46978;50.288;28.624;2023-01-30T05:28:23;17.26;;;10.34;;
60336;SDS011;46978;50.288;28.624;2023-01-30T05:29:25;18.35;;;11.35;;
60336;SDS011;46978;50.288;28.624;2023-01-30T05:30:26;19.10;;;10.87;;
60336;SDS011;46978;50.288;28.624;2023-01-30T05:31:28;18.66;;;11.10;;
60336;SDS011;46978;50.288;28.624;2023-01-30T05:32:30;18.87;;;10.29;;
60336;SDS011;46978;50.288;28.624;2023-01-30T05:33:31;20.98;;;13.36;;
60336;SDS011;46978;50.288;28.624;2023-01-30T05:34:33;18.76;;;11.31;;
60336;SDS011;46978;50.288;28.624;2023-01-30T05:35:35;13.86;;;9.22;;
60336;SDS011;46978;50.288;28.624;2023-01-30T05:36:37;17.66;;;10.72;;
60336;SDS011;46978;50.288;28.624;2023-01-30T05:37:38;17.54;;;9.51;;
60336;SDS011;46978;50.288;28.624;2023-01-30T05:38:41;17.91;;;10.31;;
60336;SDS011;46978;50.288;28.624;2023-01-30T05:39:44;19.93;;;10.09;;
60336;SDS011;46978;50.288;28.624;2023-01-30T05:40:45;21.21;;;10.91;;
60336;SDS011;46978;50.288;28.624;2023-01-30T05:41:47;17.23;;;10.84;;
60336;SDS011;46978;50.288;28.624;2023-01-30T05:42:49;19.20;;;11.08;;
60336;SDS011;46978;50.288;28.624;2023-01-30T05:43:50;17.46;;;10.36;;
60336;SDS011;46978;50.288;28.624;2023-01-30T05:44:52;15.39;;;10.39;;
60336;SDS011;46978;50.288;28.624;2023-01-30T05:45:54;17.37;;;11.11;;
60336;SDS011;46978;50.288;28.624;2023-01-30T05:46:57;19.83;;;10.75;;
60336;SDS011;46978;50.288;28.624;2023-01-30T05:47:59;19.08;;;10.97;;
60336;SDS011;46978;50.288;28.624;2023-01-30T05:49:00;18.05;;;10.64;;
60336;SDS011;46978;50.288;28.624;2023-01-30T05:50:02;18.95;;;10.25;;
60336;SDS011;46978;50.288;28.624;2023-01-30T05:51:04;16.21;;;9.82;;
60336;SDS011;46978;50.288;28.624;2023-01-30T05:52:06;15.93;;;9.51;;
60336;SDS011;46978;50.288;28.624;2023-01-30T05:53:08;18.70;;;9.68;;
60336;SDS011;46978;50.288;28.624;2023-01-30T05:54:10;18.77;;;10.79;;
60336;SDS011;46978;50.288;28.624;2023-01-30T05:55:11;16.21;;;9.68;;
60336;SDS011;46978;50.288;28.624;2023-01-30T05:56:14;17.37;;;10.41;;
60336;SDS011;46978;50.288;28.624;2023-01-30T05:57:16;17.69;;;10.05;;
60336;SDS011;46978;50.288;28.624;2023-01-30T05:58:18;19.68;;;11.81;;
60336;SDS011;46978;50.288;28.624;2023-01-30T05:59:19;16.14;;;9.64;;
60336;SDS011;46978;50.288;28.624;2023-01-30T06:00:21;16.07;;;9.56;;
60336;SDS011;46978;50.288;28.624;2023-01-30T06:01:23;20.53;;;10.47;;
60336;SDS011;46978;50.288;28.624;2023-01-30T06:02:25;16.97;;;11.21;;
60336;SDS011;46978;50.288;28.624;2023-01-30T06:03:26;17.56;;;10.15;;
60336;SDS011;46978;50.288;28.624;2023-01-30T06:04:28;18.33;;;10.72;;
60336;SDS011;46978;50.288;28.624;2023-01-30T06:05:30;17.26;;;10.01;;
60336;SDS011;46978;50.288;28.624;2023-01-30T11:05:58;16.36;;;10.00;;
60336;SDS011;46978;50.288;28.624;2023-01-30T11:07:03;16.83;;;10.15;;
60336;SDS011;46978;50.288;28.624;2023-01-30T11:08:11;17.41;;;9.61;;
60336;SDS011;46978;50.288;28.624;2023-01-30T11:09:20;14.92;;;8.76;;
60336;SDS011;46978;50.288;28.624;2023-01-30T11:10:23;13.33;;;8.41;;
60336;SDS011;46978;50.288;28.624;2023-01-30T11:12:59;13.64;;;8.55;;
60336;SDS011;46978;50.288;28.624;2023-01-30T11:14:07;13.46;;;8.12;;
60336;SDS011;46978;50.288;28.624;2023-01-30T11:15:12;15.28;;;9.44;;
60336;SDS011;46978;50.288;28.624;2023-01-30T11:16:14;16.37;;;9.55;;
60336;SDS011;46978;50.288;28.624;2023-01-30T11:17:17;17.51;;;10.50;;
60336;SDS011;46978;50.288;28.624;2023-01-30T11:18:20;20.35;;;12.26;;
60336;SDS011;46978;50.288;28.624;2023-01-30T11:19:24;20.91;;;10.46;;
60336;SDS011;46978;50.288;28.624;2023-01-30T11:20:28;19.16;;;11.88;;
60336;SDS011;46978;50.288;28.624;2023-01-30T11:21:29;18.34;;;10.99;;
60336;SDS011;46978;50.288;28.624;2023-01-30T11:22:32;16.15;;;9.52;;
60336;SDS011;46978;50.288;28.624;2023-01-30T11:23:42;17.19;;;9.62;;
60336;SDS011;46978;50.288;28.624;2023-01-30T11:24:44;14.29;;;8.49;;
60336;SDS011;46978;50.288;28.624;2023-01-30T11:25:47;16.26;;;9.81;;
60336;SDS011;46978;50.288;28.624;2023-01-30T11:26:52;17.42;;;10.26;;
60336;SDS011;46978;50.288;28.624;2023-01-30T11:27:56;18.89;;;9.94;;
60336;SDS011;46978;50.288;28.624;2023-01-30T11:29:22;16.13;;;9.10;;
60336;SDS011;46978;50.288;28.624;2023-01-30T11:30:27;14.84;;;8.81;;
60336;SDS011;46978;50.288;28.624;2023-01-30T11:31:31;15.97;;;9.10;;
60336;SDS011;46978;50.288;28.624;2023-01-30T11:32:33;15.23;;;9.27;;
60336;SDS011;46978;50.288;28.624;2023-01-30T11:33:35;18.63;;;10.11;;
60336;SDS011;46978;50.288;28.624;2023-01-30T11:34:38;16.49;;;9.74;;
60336;SDS011;46978;50.288;28.624;2023-01-30T11:35:51;17.07;;;9.17;;
60336;SDS011;46978;50.288;28.624;2023-01-30T11:37:44;15.62;;;8.82;;
60336;SDS011;46978;50.288;28.624;2023-01-30T11:38:28;15.10;;;9.06;;
60336;SDS011;46978;50.288;28.624;2023-01-30T11:39:31;20.02;;;13.00;;
60336;SDS011;46978;50.288;28.624;2023-01-30T11:40:33;19.01;;;11.77;;
60336;SDS011;46978;50.288;28.624;2023-01-30T11:41:42;18.06;;;11.73;;
60336;SDS011;46978;50.288;28.624;2023-01-30T11:43:02;18.58;;;11.08;;